Allison, Texas
Current Conditions -  °F | °C
As of 3:35 AM on Thursday 23 Oct 2014 (Local Time) from KHHF Reporting Station
Overcast Overcast  
Wind Chill: 64°   Ceiling: 2300
Heat Index: 64°   Visibility: 10mi
Dew Point: 61°   Wind: 0mph
Humidity: 92%   Direction: NA
Pressure: 30.09"   Gusts: NA
Location:  35.61°N, 100.1°W
Report Text: KHHF 230835Z AUTO 00000KT 10SM OVC023 18/16 A3009 RMK AO2 T01750162
Loading
Personal Weather Stations






























Interactive Weather Map
Tropical Storm Tracking
New forecast layout! Learn more

10-Day Weather Forecast

Advertisements
Track Severe Weather on mobile